createdAt,value
2019-03-30T00:01:53.227Z,8.30
2019-03-30T00:04:21.712Z,8.20
2019-03-30T00:06:50.166Z,8.20
2019-03-30T00:09:18.627Z,7.90
2019-03-30T00:11:47.145Z,7.70
2019-03-30T00:14:15.702Z,7.60
2019-03-30T00:16:44.219Z,7.40
2019-03-30T00:19:12.702Z,7.40
2019-03-30T00:21:41.142Z,7.60
2019-03-30T00:24:09.620Z,7.70
2019-03-30T00:26:38.109Z,7.60
2019-03-30T00:29:06.765Z,7.50
2019-03-30T00:31:35.269Z,7.30
2019-03-30T00:34:03.964Z,7.30
2019-03-30T00:36:32.426Z,7.30
2019-03-30T00:39:00.870Z,7.30
2019-03-30T00:41:29.337Z,7.20
2019-03-30T00:43:57.813Z,7.30
2019-03-30T00:46:26.259Z,7.30
2019-03-30T00:48:54.739Z,7.30
2019-03-30T00:51:23.185Z,7.30
2019-03-30T00:53:51.659Z,7.40
2019-03-30T00:56:20.147Z,7.40
2019-03-30T00:58:48.596Z,7.40
2019-03-30T01:01:17.180Z,7.40
2019-03-30T01:03:45.651Z,7.50
2019-03-30T01:06:14.171Z,7.60
2019-03-30T01:08:42.645Z,7.60
2019-03-30T01:11:11.090Z,7.70
2019-03-30T01:13:39.574Z,7.60
2019-03-30T01:16:08.082Z,7.50
2019-03-30T01:18:36.557Z,7.70
2019-03-30T01:21:05.071Z,7.70
2019-03-30T01:23:33.539Z,7.70
2019-03-30T01:26:02.076Z,7.60
2019-03-30T01:28:30.594Z,7.60
2019-03-30T01:30:59.128Z,7.30
2019-03-30T01:33:27.585Z,7.20
2019-03-30T01:35:56.040Z,7.10
2019-03-30T01:38:24.524Z,6.90
2019-03-30T01:40:52.970Z,6.70
2019-03-30T01:43:21.430Z,6.60
2019-03-30T01:45:49.903Z,6.50
2019-03-30T01:48:18.363Z,6.60
2019-03-30T01:50:47.751Z,6.60
2019-03-30T01:53:16.205Z,6.70
2019-03-30T01:55:44.691Z,6.70
2019-03-30T01:58:13.130Z,6.80
2019-03-30T02:00:41.678Z,6.90
2019-03-30T02:03:10.212Z,6.80
2019-03-30T02:05:38.675Z,6.80
2019-03-30T02:08:07.123Z,6.70
2019-03-30T02:10:40.182Z,6.70
2019-03-30T02:13:08.647Z,6.80
2019-03-30T02:15:37.157Z,6.90
2019-03-30T02:18:05.713Z,6.80
2019-03-30T02:20:40.197Z,6.70
2019-03-30T02:23:08.783Z,6.70
2019-03-30T02:25:37.323Z,6.60
2019-03-30T02:28:07.129Z,6.50
2019-03-30T02:30:36.211Z,6.50
2019-03-30T02:33:04.747Z,6.60
2019-03-30T02:35:33.187Z,6.70
2019-03-30T02:38:01.672Z,6.80
2019-03-30T02:40:30.394Z,6.70
2019-03-30T02:42:58.847Z,6.70
2019-03-30T02:45:27.304Z,6.60
2019-03-30T02:47:55.770Z,6.60
2019-03-30T02:50:24.280Z,6.60
2019-03-30T02:52:52.756Z,6.50
2019-03-30T02:55:21.230Z,6.50
2019-03-30T02:57:49.711Z,6.40
2019-03-30T03:00:18.944Z,6.40
2019-03-30T03:02:47.494Z,6.40
2019-03-30T03:05:16.181Z,6.50
2019-03-30T03:07:44.662Z,6.60
2019-03-30T03:10:13.644Z,6.50
2019-03-30T03:12:42.114Z,6.40
2019-03-30T03:15:11.339Z,6.40
2019-03-30T03:17:39.860Z,6.30
2019-03-30T03:20:08.516Z,6.30
2019-03-30T03:22:36.994Z,6.20
2019-03-30T03:25:07.012Z,6.20
2019-03-30T03:27:35.475Z,6.20
2019-03-30T03:30:05.069Z,6.20
2019-03-30T03:32:33.607Z,6.10
2019-03-30T03:35:02.238Z,6.00
2019-03-30T03:37:44.601Z,6.00
2019-03-30T03:40:01.045Z,5.90
2019-03-30T03:42:29.592Z,5.90
2019-03-30T03:44:58.108Z,5.80
2019-03-30T03:47:26.582Z,5.80
2019-03-30T03:49:55.125Z,5.80
2019-03-30T03:52:23.709Z,5.70
2019-03-30T03:54:53.312Z,5.70
2019-03-30T03:57:23.336Z,5.70
2019-03-30T03:59:53.452Z,5.70
2019-03-30T04:02:25.234Z,5.70
2019-03-30T04:04:55.634Z,5.60
2019-03-30T04:07:24.727Z,5.50
2019-03-30T04:09:56.251Z,5.50
2019-03-30T04:12:25.648Z,5.40
2019-03-30T04:14:54.267Z,5.40
2019-03-30T04:17:22.919Z,5.30
2019-03-30T04:19:51.417Z,5.20
2019-03-30T04:22:19.942Z,5.20
2019-03-30T04:24:48.491Z,5.30
2019-03-30T04:27:16.928Z,5.30
2019-03-30T04:29:45.405Z,5.30
2019-03-30T04:32:13.951Z,5.30
2019-03-30T04:34:42.420Z,5.30
2019-03-30T04:37:10.899Z,5.30
2019-03-30T04:39:39.368Z,5.40
2019-03-30T04:42:07.811Z,5.40
2019-03-30T04:44:36.279Z,5.50
2019-03-30T04:47:04.719Z,5.50
2019-03-30T04:49:33.208Z,5.50
2019-03-30T04:52:01.667Z,5.50
2019-03-30T04:54:30.107Z,5.50
2019-03-30T04:56:58.576Z,5.40
2019-03-30T04:59:27.019Z,5.40
2019-03-30T05:01:55.486Z,5.40
2019-03-30T05:04:23.936Z,5.40
2019-03-30T05:06:52.379Z,5.40
2019-03-30T05:09:20.855Z,5.40
2019-03-30T05:11:49.330Z,5.50
2019-03-30T05:14:17.786Z,5.50
2019-03-30T05:16:46.272Z,5.50
2019-03-30T05:19:14.739Z,5.50
2019-03-30T05:21:43.229Z,5.50
2019-03-30T05:24:11.817Z,5.50
2019-03-30T05:26:40.257Z,5.50
2019-03-30T05:29:08.734Z,5.50
2019-03-30T05:31:37.212Z,5.50
2019-03-30T05:34:05.679Z,5.50
2019-03-30T05:36:34.314Z,5.50
2019-03-30T05:39:02.774Z,5.50
2019-03-30T05:41:31.243Z,5.70
2019-03-30T05:43:59.765Z,5.80
2019-03-30T05:46:28.240Z,5.90
2019-03-30T05:48:56.697Z,5.90
2019-03-30T05:51:25.168Z,6.10
2019-03-30T05:53:53.644Z,6.20
2019-03-30T05:56:22.091Z,6.20
2019-03-30T05:58:50.565Z,6.20
2019-03-30T06:01:19.038Z,6.20
2019-03-30T06:03:47.490Z,6.30
2019-03-30T06:06:15.958Z,6.40
2019-03-30T06:08:44.430Z,6.50
2019-03-30T06:11:12.867Z,6.50
2019-03-30T06:13:41.622Z,6.60
2019-03-30T06:16:10.054Z,6.80
2019-03-30T06:18:38.531Z,6.90
2019-03-30T06:21:07.007Z,7.10
2019-03-30T06:23:35.447Z,7.00
2019-03-30T06:26:04.002Z,7.20
2019-03-30T06:28:32.537Z,7.10
2019-03-30T06:31:01.024Z,7.20
2019-03-30T06:33:29.475Z,7.20
2019-03-30T06:35:57.942Z,7.40
2019-03-30T06:38:26.417Z,7.50
2019-03-30T06:40:54.903Z,7.80
2019-03-30T06:43:23.351Z,7.70
2019-03-30T06:45:51.822Z,7.60
2019-03-30T06:48:20.278Z,8.10
2019-03-30T06:50:48.739Z,8.10
2019-03-30T06:53:17.210Z,8.20
2019-03-30T06:55:45.696Z,8.30
2019-03-30T06:58:14.179Z,8.50
2019-03-30T07:00:42.795Z,8.80
2019-03-30T07:03:11.277Z,9.10
2019-03-30T07:05:40.997Z,8.90
2019-03-30T07:08:14.771Z,9.10
2019-03-30T07:10:45.360Z,9.20
2019-03-30T07:13:14.560Z,9.40
2019-03-30T07:15:46.976Z,9.50
2019-03-30T07:18:16.251Z,9.40
2019-03-30T07:20:44.686Z,9.30
2019-03-30T07:23:13.991Z,9.50
2019-03-30T07:25:42.440Z,9.80
2019-03-30T07:28:10.910Z,9.60
2019-03-30T07:30:39.440Z,10.00
2019-03-30T07:33:07.923Z,10.00
2019-03-30T07:35:36.368Z,10.00
2019-03-30T07:38:04.910Z,10.40
2019-03-30T07:40:33.995Z,10.40
2019-03-30T07:43:02.795Z,11.00
2019-03-30T07:45:31.243Z,11.40
2019-03-30T07:47:59.733Z,11.60
2019-03-30T07:50:28.182Z,11.90
2019-03-30T07:52:56.629Z,12.40
2019-03-30T07:55:25.112Z,12.00
2019-03-30T07:57:53.580Z,11.60
2019-03-30T08:00:22.177Z,11.70
2019-03-30T08:02:50.623Z,11.30
2019-03-30T08:05:19.183Z,11.40
2019-03-30T08:07:47.734Z,12.20
2019-03-30T08:10:16.761Z,12.00
2019-03-30T08:12:45.331Z,12.40
2019-03-30T08:15:14.822Z,12.50
2019-03-30T08:17:43.307Z,12.40
2019-03-30T08:20:12.022Z,12.50
2019-03-30T08:22:40.475Z,13.10
2019-03-30T08:25:09.019Z,12.70
2019-03-30T08:27:37.565Z,13.20
2019-03-30T08:30:07.059Z,13.20
2019-03-30T08:32:35.554Z,13.30
2019-03-30T08:35:04.783Z,14.30
2019-03-30T08:37:33.226Z,15.30
2019-03-30T08:40:01.675Z,15.70
2019-03-30T08:42:30.146Z,15.80
2019-03-30T08:44:58.632Z,15.50
2019-03-30T08:47:27.074Z,15.50
2019-03-30T08:49:55.549Z,15.90
2019-03-30T08:52:24.019Z,15.60
2019-03-30T08:54:52.490Z,15.10
2019-03-30T08:57:20.957Z,15.00
2019-03-30T08:59:55.302Z,15.00
2019-03-30T09:02:23.779Z,15.80
2019-03-30T09:04:52.228Z,16.20
2019-03-30T09:07:20.714Z,15.90
2019-03-30T09:09:49.219Z,15.50
2019-03-30T09:12:17.695Z,15.60
2019-03-30T09:14:46.219Z,16.50
2019-03-30T09:17:14.747Z,16.80
2019-03-30T09:19:43.210Z,16.70
2019-03-30T09:22:11.662Z,16.60
2019-03-30T09:24:40.148Z,16.40
2019-03-30T09:27:08.623Z,16.30
2019-03-30T09:29:37.067Z,16.30
2019-03-30T09:32:14.309Z,17.10
2019-03-30T09:34:35.789Z,17.40
2019-03-30T09:37:04.322Z,16.80
2019-03-30T09:39:32.782Z,16.30
2019-03-30T09:42:01.252Z,16.50
2019-03-30T09:44:29.713Z,17.30
2019-03-30T09:46:58.190Z,18.10
2019-03-30T09:49:26.648Z,18.40
2019-03-30T09:51:55.198Z,17.90
2019-03-30T09:54:24.271Z,17.20
2019-03-30T09:56:52.912Z,17.60
2019-03-30T09:59:21.399Z,17.60
2019-03-30T10:01:50.218Z,17.80
2019-03-30T10:04:18.700Z,17.00
2019-03-30T10:06:47.163Z,18.00
2019-03-30T10:09:15.642Z,18.30
2019-03-30T10:11:44.099Z,18.40
2019-03-30T10:14:12.583Z,19.20
2019-03-30T10:16:41.031Z,19.20
2019-03-30T10:19:09.504Z,20.00
2019-03-30T10:21:37.988Z,20.20
2019-03-30T10:24:06.449Z,19.80
2019-03-30T10:26:34.915Z,19.60
2019-03-30T10:29:03.513Z,20.40
2019-03-30T10:31:31.984Z,20.20
2019-03-30T10:34:00.431Z,20.60
2019-03-30T10:36:28.917Z,20.70
2019-03-30T10:38:57.366Z,19.90
2019-03-30T10:41:25.874Z,19.90
2019-03-30T10:43:54.342Z,20.00
2019-03-30T10:46:22.795Z,20.10
2019-03-30T10:48:51.275Z,20.00
2019-03-30T10:51:19.760Z,19.60
2019-03-30T10:53:48.239Z,19.40
2019-03-30T10:56:16.680Z,19.20
2019-03-30T10:58:45.119Z,20.00
2019-03-30T11:01:13.660Z,19.50
2019-03-30T11:03:42.127Z,18.90
2019-03-30T11:06:11.197Z,19.40
2019-03-30T11:08:39.649Z,19.80
2019-03-30T11:11:08.228Z,19.50
2019-03-30T11:13:36.706Z,19.40
2019-03-30T11:16:05.145Z,19.30
2019-03-30T11:18:33.617Z,19.50
2019-03-30T11:21:02.078Z,19.10
2019-03-30T11:23:30.815Z,19.20
2019-03-30T11:25:59.263Z,18.90
2019-03-30T11:28:27.735Z,19.30
2019-03-30T11:30:56.205Z,19.10
2019-03-30T11:33:24.669Z,19.10
2019-03-30T11:35:53.222Z,19.40
2019-03-30T11:38:21.769Z,19.80
2019-03-30T11:40:50.249Z,19.90
2019-03-30T11:43:18.691Z,19.40
2019-03-30T11:45:47.247Z,19.30
2019-03-30T11:48:15.693Z,19.80
2019-03-30T11:50:44.155Z,19.90
2019-03-30T11:53:12.598Z,20.10
2019-03-30T11:55:41.081Z,19.90
2019-03-30T11:58:09.532Z,19.70
2019-03-30T12:00:38.079Z,19.40
2019-03-30T12:03:06.522Z,19.30
2019-03-30T12:05:35.028Z,19.20
2019-03-30T12:08:03.607Z,19.30
2019-03-30T12:10:32.141Z,19.20
2019-03-30T12:13:00.630Z,19.20
2019-03-30T12:15:29.160Z,19.10
2019-03-30T12:17:57.646Z,18.90
2019-03-30T12:20:26.098Z,18.70
2019-03-30T12:22:54.652Z,19.10
2019-03-30T12:25:34.904Z,19.30
2019-03-30T12:27:53.507Z,19.40
2019-03-30T12:30:22.003Z,19.70
2019-03-30T12:32:50.503Z,19.30
2019-03-30T12:35:18.942Z,19.00
2019-03-30T12:37:47.392Z,19.00
2019-03-30T12:40:16.211Z,19.30
2019-03-30T12:42:44.662Z,19.50
2019-03-30T12:45:14.087Z,19.00
2019-03-30T12:47:42.566Z,18.80
2019-03-30T12:50:11.285Z,18.70
2019-03-30T12:52:39.884Z,18.60
2019-03-30T12:55:08.569Z,18.40
2019-03-30T12:57:37.031Z,18.40
2019-03-30T13:00:07.637Z,18.40
2019-03-30T13:02:36.114Z,18.60
2019-03-30T13:05:07.447Z,18.70
2019-03-30T13:07:35.843Z,18.80
2019-03-30T13:10:05.932Z,18.80
2019-03-30T13:12:35.068Z,19.10
2019-03-30T13:15:04.462Z,19.50
2019-03-30T13:17:32.954Z,19.20
2019-03-30T13:20:01.437Z,19.40
2019-03-30T13:22:29.995Z,19.10
2019-03-30T13:24:58.487Z,19.20
2019-03-30T13:27:26.953Z,19.30
2019-03-30T13:29:55.434Z,19.30
2019-03-30T13:32:23.883Z,19.00
2019-03-30T13:34:52.360Z,18.80
2019-03-30T13:37:21.148Z,18.90
2019-03-30T13:39:49.623Z,19.00
2019-03-30T13:42:18.181Z,19.10
2019-03-30T13:44:46.721Z,19.20
2019-03-30T13:47:15.194Z,18.90
2019-03-30T13:49:43.679Z,18.80
2019-03-30T13:52:12.485Z,18.70
2019-03-30T13:54:40.947Z,18.90
2019-03-30T13:57:10.078Z,19.00
2019-03-30T13:59:38.571Z,19.10
2019-03-30T14:02:07.157Z,19.30
2019-03-30T14:04:35.636Z,19.30
2019-03-30T14:07:04.067Z,19.20
2019-03-30T14:09:32.548Z,18.90
2019-03-30T14:12:01.024Z,18.90
2019-03-30T14:14:29.475Z,18.70
2019-03-30T14:16:57.967Z,18.80
2019-03-30T14:19:26.407Z,19.00
2019-03-30T14:21:54.872Z,19.10
2019-03-30T14:24:23.315Z,19.10
2019-03-30T14:26:51.866Z,18.90
2019-03-30T14:29:20.323Z,18.80
2019-03-30T14:31:48.825Z,18.70
2019-03-30T14:34:17.263Z,18.70
2019-03-30T14:36:45.743Z,18.40
2019-03-30T14:39:14.185Z,18.40
2019-03-30T14:41:42.656Z,18.30
2019-03-30T14:44:11.131Z,18.10
2019-03-30T14:46:39.611Z,18.10
2019-03-30T14:49:08.057Z,17.90
2019-03-30T14:51:36.550Z,17.90
2019-03-30T14:54:05.381Z,18.00
2019-03-30T14:56:44.830Z,17.90
2019-03-30T14:59:10.180Z,18.20
2019-03-30T15:01:37.111Z,18.30
2019-03-30T15:04:05.708Z,18.40
2019-03-30T15:06:34.264Z,18.40
2019-03-30T15:09:02.728Z,18.50
2019-03-30T15:11:31.207Z,18.40
2019-03-30T15:13:59.699Z,18.30
2019-03-30T15:16:28.151Z,18.20
2019-03-30T15:18:56.622Z,18.00
2019-03-30T15:21:25.083Z,18.00
2019-03-30T15:23:53.563Z,17.80
2019-03-30T15:26:22.327Z,17.70
2019-03-30T15:28:50.871Z,17.80
2019-03-30T15:31:19.438Z,17.90
2019-03-30T15:33:47.871Z,17.90
2019-03-30T15:36:16.345Z,18.10
2019-03-30T15:38:44.803Z,18.00
2019-03-30T15:41:13.342Z,17.90
2019-03-30T15:43:41.786Z,17.70
2019-03-30T15:46:10.420Z,17.80
2019-03-30T15:48:38.896Z,17.70
2019-03-30T15:51:07.379Z,17.60
2019-03-30T15:53:35.831Z,17.70
2019-03-30T15:56:04.412Z,17.60
2019-03-30T15:58:32.884Z,17.70
2019-03-30T16:01:01.809Z,17.80
2019-03-30T16:03:30.279Z,17.60
2019-03-30T16:05:58.727Z,17.60
2019-03-30T16:08:29.392Z,17.60
2019-03-30T16:10:57.821Z,17.70
2019-03-30T16:13:26.388Z,17.70
2019-03-30T16:15:54.859Z,17.70
2019-03-30T16:18:23.349Z,17.70
2019-03-30T16:20:51.922Z,17.80
2019-03-30T16:23:20.367Z,17.70
2019-03-30T16:25:48.843Z,17.70
2019-03-30T16:28:17.355Z,17.80
2019-03-30T16:30:45.903Z,17.80
2019-03-30T16:33:14.379Z,17.90
2019-03-30T16:35:42.863Z,17.80
2019-03-30T16:38:11.324Z,17.70
2019-03-30T16:40:39.795Z,17.60
2019-03-30T16:43:08.708Z,17.50
2019-03-30T16:45:37.320Z,17.50
2019-03-30T16:48:05.888Z,17.40
2019-03-30T16:50:34.778Z,17.40
2019-03-30T16:53:03.265Z,17.40
2019-03-30T16:55:31.791Z,17.30
2019-03-30T16:58:00.303Z,17.30
2019-03-30T17:00:33.395Z,17.30
2019-03-30T17:03:03.722Z,17.20
2019-03-30T17:05:32.168Z,17.20
2019-03-30T17:08:00.624Z,17.00
2019-03-30T17:10:29.190Z,16.90
2019-03-30T17:12:57.638Z,16.90
2019-03-30T17:15:26.094Z,16.90
2019-03-30T17:17:54.576Z,16.70
2019-03-30T17:20:23.038Z,16.70
2019-03-30T17:22:51.516Z,16.60
2019-03-30T17:25:19.970Z,16.60
2019-03-30T17:27:58.276Z,16.50
2019-03-30T17:30:18.608Z,16.40
2019-03-30T17:32:47.112Z,16.40
2019-03-30T17:35:15.555Z,16.30
2019-03-30T17:37:44.015Z,16.20
2019-03-30T17:40:12.829Z,16.20
2019-03-30T17:42:41.277Z,16.00
2019-03-30T17:45:10.510Z,16.00
2019-03-30T17:47:39.020Z,16.00
2019-03-30T17:50:08.819Z,15.90
2019-03-30T17:52:37.334Z,15.90
2019-03-30T17:55:06.247Z,15.80
2019-03-30T17:57:34.726Z,15.70
2019-03-30T18:00:07.876Z,15.70
2019-03-30T18:02:34.893Z,15.60
2019-03-30T18:05:03.519Z,15.60
2019-03-30T18:07:31.987Z,15.50
2019-03-30T18:10:03.212Z,15.40
2019-03-30T18:12:30.639Z,15.30
2019-03-30T18:14:59.107Z,15.20
2019-03-30T18:17:27.563Z,15.10
2019-03-30T18:19:56.040Z,15.00
2019-03-30T18:22:24.491Z,14.90
2019-03-30T18:24:53.038Z,14.90
2019-03-30T18:27:21.487Z,14.90
2019-03-30T18:29:49.981Z,14.80
2019-03-30T18:32:21.360Z,14.70
2019-03-30T18:34:51.103Z,14.60
2019-03-30T18:37:20.275Z,14.50
2019-03-30T18:39:48.899Z,14.50
2019-03-30T18:42:17.352Z,14.50
2019-03-30T18:44:46.578Z,14.40
2019-03-30T18:47:15.089Z,14.40
2019-03-30T18:49:43.538Z,14.30
2019-03-30T18:52:12.914Z,14.10
2019-03-30T18:54:42.041Z,14.20
2019-03-30T18:57:10.510Z,14.20
2019-03-30T18:59:39.571Z,14.20
2019-03-30T19:02:08.079Z,14.10
2019-03-30T19:04:36.614Z,14.20
2019-03-30T19:07:05.164Z,14.20
2019-03-30T19:09:33.637Z,14.10
2019-03-30T19:12:02.201Z,14.20
2019-03-30T19:14:30.652Z,14.10
2019-03-30T19:16:59.131Z,14.00
2019-03-30T19:19:27.621Z,14.00
2019-03-30T19:21:56.189Z,13.90
2019-03-30T19:24:24.682Z,13.90
2019-03-30T19:26:53.215Z,13.70
2019-03-30T19:29:21.705Z,13.60
2019-03-30T19:31:51.005Z,13.60
2019-03-30T19:34:19.494Z,13.60
2019-03-30T19:36:47.943Z,13.50
2019-03-30T19:39:16.433Z,13.40
2019-03-30T19:41:44.894Z,13.20
2019-03-30T19:44:13.375Z,12.90
2019-03-30T19:46:41.894Z,12.90
2019-03-30T19:49:10.387Z,12.90
2019-03-30T19:51:38.863Z,12.80
2019-03-30T19:54:07.344Z,12.90
2019-03-30T19:56:35.789Z,13.00
2019-03-30T19:59:10.597Z,12.90
2019-03-30T20:01:34.800Z,12.70
2019-03-30T20:04:03.255Z,12.70
2019-03-30T20:06:31.800Z,12.60
2019-03-30T20:09:00.276Z,12.40
2019-03-30T20:11:28.757Z,12.20
2019-03-30T20:13:57.241Z,12.10
2019-03-30T20:16:25.718Z,12.10
2019-03-30T20:19:10.976Z,12.00
2019-03-30T20:21:24.390Z,11.70
2019-03-30T20:23:52.877Z,11.60
2019-03-30T20:26:21.466Z,11.50
2019-03-30T20:28:49.948Z,11.30
2019-03-30T20:31:18.438Z,11.20
2019-03-30T20:33:46.882Z,11.10
2019-03-30T20:36:15.409Z,11.10
2019-03-30T20:38:43.900Z,11.10
2019-03-30T20:41:12.339Z,11.10
2019-03-30T20:43:40.830Z,11.10
2019-03-30T20:46:09.409Z,11.30
2019-03-30T20:48:37.989Z,11.50
2019-03-30T20:51:06.503Z,11.60
2019-03-30T20:53:34.983Z,11.60
2019-03-30T20:56:03.473Z,11.60
2019-03-30T20:58:31.922Z,11.50
2019-03-30T21:01:00.406Z,11.40
2019-03-30T21:03:28.865Z,11.30
2019-03-30T21:05:57.322Z,11.20
2019-03-30T21:08:25.811Z,11.40
2019-03-30T21:10:54.260Z,11.50
2019-03-30T21:13:22.739Z,11.60
2019-03-30T21:15:51.191Z,11.50
2019-03-30T21:18:19.678Z,11.50
2019-03-30T21:20:48.146Z,11.50
2019-03-30T21:23:16.599Z,11.60
2019-03-30T21:25:45.083Z,11.70
2019-03-30T21:28:13.528Z,11.90
2019-03-30T21:30:42.011Z,11.80
2019-03-30T21:33:10.460Z,11.90
2019-03-30T21:35:38.935Z,12.00
2019-03-30T21:38:07.404Z,12.00
2019-03-30T21:40:36.042Z,11.90
2019-03-30T21:43:04.584Z,11.90
2019-03-30T21:45:33.047Z,11.70
2019-03-30T21:48:01.494Z,11.70
2019-03-30T21:50:29.980Z,11.70
2019-03-30T21:52:58.426Z,11.90
2019-03-30T21:55:26.911Z,11.90
2019-03-30T21:57:55.610Z,11.90
2019-03-30T22:00:34.532Z,11.90
2019-03-30T22:03:03.098Z,11.90
2019-03-30T22:05:32.079Z,11.80
2019-03-30T22:08:00.603Z,11.80
2019-03-30T22:10:29.228Z,11.80
2019-03-30T22:12:57.735Z,11.80
2019-03-30T22:15:27.750Z,11.80
2019-03-30T22:17:56.731Z,11.70
2019-03-30T22:20:25.620Z,11.60
2019-03-30T22:22:54.176Z,11.50
2019-03-30T22:25:22.639Z,11.50
2019-03-30T22:27:51.127Z,11.40
2019-03-30T22:30:25.007Z,11.30
2019-03-30T22:32:49.832Z,11.10
2019-03-30T22:35:18.272Z,10.80
2019-03-30T22:37:46.761Z,10.70
2019-03-30T22:40:15.383Z,10.90
2019-03-30T22:42:43.837Z,10.90
2019-03-30T22:45:12.430Z,11.00
2019-03-30T22:47:40.907Z,11.10
2019-03-30T22:50:09.996Z,11.00
2019-03-30T22:52:38.511Z,11.00
2019-03-30T22:55:07.607Z,11.00
2019-03-30T22:57:36.147Z,11.00
2019-03-30T23:00:10.999Z,11.10
2019-03-30T23:02:40.521Z,11.20
2019-03-30T23:05:09.549Z,11.10
2019-03-30T23:07:38.110Z,11.10
2019-03-30T23:10:07.398Z,10.90
2019-03-30T23:12:35.874Z,10.80
2019-03-30T23:15:04.668Z,10.70
2019-03-30T23:17:33.302Z,10.60
2019-03-30T23:20:01.746Z,10.70
2019-03-30T23:22:30.234Z,10.70
2019-03-30T23:24:58.685Z,10.40
2019-03-30T23:27:27.163Z,10.10
2019-03-30T23:29:55.610Z,10.00
2019-03-30T23:32:24.086Z,10.00
2019-03-30T23:34:52.566Z,10.20
2019-03-30T23:37:21.042Z,10.40
2019-03-30T23:39:49.506Z,10.50
2019-03-30T23:42:17.990Z,10.50
2019-03-30T23:44:47.051Z,10.50
2019-03-30T23:47:15.527Z,10.50
2019-03-30T23:49:43.988Z,10.60
2019-03-30T23:52:12.470Z,10.50
2019-03-30T23:54:40.936Z,10.50
2019-03-30T23:57:09.407Z,10.50
2019-03-30T23:59:37.879Z,10.20
